sensor_id;sensor_type;location;lat;lon;timestamp;temperature;humidity
34927;DHT22;21132;48.308;14.274;2022-10-16T00:01:28;16.60;74.10
34927;DHT22;21132;48.308;14.274;2022-10-16T00:03:55;16.60;74.30
34927;DHT22;21132;48.308;14.274;2022-10-16T00:06:22;16.60;74.50
34927;DHT22;21132;48.308;14.274;2022-10-16T00:08:49;16.50;74.60
34927;DHT22;21132;48.308;14.274;2022-10-16T00:11:23;16.50;74.60
34927;DHT22;21132;48.308;14.274;2022-10-16T00:13:54;16.50;74.60
34927;DHT22;21132;48.308;14.274;2022-10-16T00:16:20;16.60;74.60
34927;DHT22;21132;48.308;14.274;2022-10-16T00:18:46;16.60;74.60
34927;DHT22;21132;48.308;14.274;2022-10-16T00:21:24;16.60;74.50
34927;DHT22;21132;48.308;14.274;2022-10-16T00:23:55;16.60;74.50
34927;DHT22;21132;48.308;14.274;2022-10-16T00:26:21;16.60;74.50
34927;DHT22;21132;48.308;14.274;2022-10-16T00:28:51;16.60;74.40
34927;DHT22;21132;48.308;14.274;2022-10-16T00:31:19;16.60;74.50
34927;DHT22;21132;48.308;14.274;2022-10-16T00:33:45;16.60;74.40
34927;DHT22;21132;48.308;14.274;2022-10-16T00:36:15;16.60;74.30
34927;DHT22;21132;48.308;14.274;2022-10-16T00:38:41;16.60;74.30
34927;DHT22;21132;48.308;14.274;2022-10-16T00:41:09;16.60;74.30
34927;DHT22;21132;48.308;14.274;2022-10-16T00:43:52;16.60;74.20
34927;DHT22;21132;48.308;14.274;2022-10-16T00:49:00;16.60;74.20
34927;DHT22;21132;48.308;14.274;2022-10-16T00:51:41;16.60;74.20
34927;DHT22;21132;48.308;14.274;2022-10-16T00:54:17;16.60;74.20
34927;DHT22;21132;48.308;14.274;2022-10-16T00:56:45;16.60;74.20
34927;DHT22;21132;48.308;14.274;2022-10-16T00:59:29;16.60;74.20
34927;DHT22;21132;48.308;14.274;2022-10-16T01:01:56;16.60;74.20
34927;DHT22;21132;48.308;14.274;2022-10-16T01:04:23;16.60;74.10
34927;DHT22;21132;48.308;14.274;2022-10-16T01:07:11;16.60;74.20
34927;DHT22;21132;48.308;14.274;2022-10-16T01:12:45;16.60;74.20
34927;DHT22;21132;48.308;14.274;2022-10-16T01:18:02;16.50;74.10
34927;DHT22;21132;48.308;14.274;2022-10-16T01:20:33;16.50;74.00
34927;DHT22;21132;48.308;14.274;2022-10-16T01:28:11;16.50;74.00
34927;DHT22;21132;48.308;14.274;2022-10-16T01:30:40;16.50;74.00
34927;DHT22;21132;48.308;14.274;2022-10-16T01:33:17;16.40;74.00
34927;DHT22;21132;48.308;14.274;2022-10-16T01:35:50;16.40;74.00
34927;DHT22;21132;48.308;14.274;2022-10-16T01:38:35;16.50;74.20
34927;DHT22;21132;48.308;14.274;2022-10-16T01:43:50;16.40;74.10
34927;DHT22;21132;48.308;14.274;2022-10-16T01:46:20;16.40;74.10
34927;DHT22;21132;48.308;14.274;2022-10-16T01:48:48;16.40;74.00
34927;DHT22;21132;48.308;14.274;2022-10-16T01:51:15;16.40;73.90
34927;DHT22;21132;48.308;14.274;2022-10-16T01:53:46;16.40;73.90
34927;DHT22;21132;48.308;14.274;2022-10-16T01:56:15;16.30;73.80
34927;DHT22;21132;48.308;14.274;2022-10-16T01:58:55;16.40;73.90
34927;DHT22;21132;48.308;14.274;2022-10-16T02:01:25;16.30;73.80
34927;DHT22;21132;48.308;14.274;2022-10-16T02:03:54;16.30;73.80
34927;DHT22;21132;48.308;14.274;2022-10-16T02:06:22;16.20;73.70
34927;DHT22;21132;48.308;14.274;2022-10-16T02:08:49;16.20;73.80
34927;DHT22;21132;48.308;14.274;2022-10-16T02:11:14;16.20;73.80
34927;DHT22;21132;48.308;14.274;2022-10-16T02:13:53;16.20;73.80
34927;DHT22;21132;48.308;14.274;2022-10-16T02:16:20;16.10;73.80
34927;DHT22;21132;48.308;14.274;2022-10-16T02:18:46;16.10;73.80
34927;DHT22;21132;48.308;14.274;2022-10-16T02:21:53;16.00;73.70
34927;DHT22;21132;48.308;14.274;2022-10-16T02:29:53;16.00;73.70
34927;DHT22;21132;48.308;14.274;2022-10-16T02:32:26;15.90;73.70
34927;DHT22;21132;48.308;14.274;2022-10-16T02:34:53;15.90;73.70
34927;DHT22;21132;48.308;14.274;2022-10-16T02:37:19;15.90;73.80
34927;DHT22;21132;48.308;14.274;2022-10-16T02:39:45;15.80;73.80
34927;DHT22;21132;48.308;14.274;2022-10-16T02:42:14;15.80;73.90
34927;DHT22;21132;48.308;14.274;2022-10-16T02:44:40;15.80;74.00
34927;DHT22;21132;48.308;14.274;2022-10-16T02:47:06;15.80;74.00
34927;DHT22;21132;48.308;14.274;2022-10-16T02:49:32;15.70;74.00
34927;DHT22;21132;48.308;14.274;2022-10-16T02:51:58;15.70;74.00
34927;DHT22;21132;48.308;14.274;2022-10-16T02:54:23;15.70;74.10
34927;DHT22;21132;48.308;14.274;2022-10-16T02:56:49;15.70;74.20
34927;DHT22;21132;48.308;14.274;2022-10-16T02:59:15;15.70;74.20
34927;DHT22;21132;48.308;14.274;2022-10-16T03:01:41;15.70;74.30
34927;DHT22;21132;48.308;14.274;2022-10-16T03:04:07;15.60;74.30
34927;DHT22;21132;48.308;14.274;2022-10-16T03:06:33;15.60;75.10
34927;DHT22;21132;48.308;14.274;2022-10-16T03:08:58;15.60;74.50
34927;DHT22;21132;48.308;14.274;2022-10-16T03:11:24;15.60;74.60
34927;DHT22;21132;48.308;14.274;2022-10-16T03:13:50;15.60;74.70
34927;DHT22;21132;48.308;14.274;2022-10-16T03:16:16;15.60;74.70
34927;DHT22;21132;48.308;14.274;2022-10-16T03:18:41;15.60;74.80
34927;DHT22;21132;48.308;14.274;2022-10-16T03:21:07;15.70;74.90
34927;DHT22;21132;48.308;14.274;2022-10-16T03:23:33;15.60;74.90
34927;DHT22;21132;48.308;14.274;2022-10-16T03:25:59;15.70;75.00
34927;DHT22;21132;48.308;14.274;2022-10-16T03:28:24;15.70;75.10
34927;DHT22;21132;48.308;14.274;2022-10-16T03:30:50;15.70;75.20
34927;DHT22;21132;48.308;14.274;2022-10-16T03:33:16;15.70;75.40
34927;DHT22;21132;48.308;14.274;2022-10-16T03:35:42;15.70;75.40
34927;DHT22;21132;48.308;14.274;2022-10-16T03:38:08;15.80;75.50
34927;DHT22;21132;48.308;14.274;2022-10-16T03:40:33;15.80;75.60
34927;DHT22;21132;48.308;14.274;2022-10-16T03:42:59;15.90;75.70
34927;DHT22;21132;48.308;14.274;2022-10-16T03:45:25;15.90;75.60
34927;DHT22;21132;48.308;14.274;2022-10-16T03:47:53;15.90;75.40
34927;DHT22;21132;48.308;14.274;2022-10-16T03:50:19;15.90;75.40
34927;DHT22;21132;48.308;14.274;2022-10-16T03:52:44;16.00;75.40
34927;DHT22;21132;48.308;14.274;2022-10-16T03:55:10;16.00;75.40
34927;DHT22;21132;48.308;14.274;2022-10-16T03:57:36;16.00;75.40
34927;DHT22;21132;48.308;14.274;2022-10-16T04:00:02;16.00;75.40
34927;DHT22;21132;48.308;14.274;2022-10-16T04:02:28;16.00;75.30
34927;DHT22;21132;48.308;14.274;2022-10-16T04:04:54;16.00;75.20
34927;DHT22;21132;48.308;14.274;2022-10-16T04:07:20;16.00;75.10
34927;DHT22;21132;48.308;14.274;2022-10-16T04:09:46;16.00;75.00
34927;DHT22;21132;48.308;14.274;2022-10-16T04:12:11;16.00;74.90
34927;DHT22;21132;48.308;14.274;2022-10-16T04:14:37;16.00;74.80
34927;DHT22;21132;48.308;14.274;2022-10-16T04:17:03;16.00;74.80
34927;DHT22;21132;48.308;14.274;2022-10-16T04:19:29;16.00;74.70
34927;DHT22;21132;48.308;14.274;2022-10-16T04:21:54;16.00;74.70
34927;DHT22;21132;48.308;14.274;2022-10-16T04:24:20;16.00;74.70
34927;DHT22;21132;48.308;14.274;2022-10-16T04:26:46;16.00;74.60
34927;DHT22;21132;48.308;14.274;2022-10-16T04:29:11;16.00;74.60
34927;DHT22;21132;48.308;14.274;2022-10-16T04:31:37;16.00;74.70
34927;DHT22;21132;48.308;14.274;2022-10-16T04:34:03;16.00;74.70
34927;DHT22;21132;48.308;14.274;2022-10-16T04:36:28;16.00;74.70
34927;DHT22;21132;48.308;14.274;2022-10-16T04:38:54;16.00;74.70
34927;DHT22;21132;48.308;14.274;2022-10-16T04:41:20;15.90;74.60
34927;DHT22;21132;48.308;14.274;2022-10-16T04:43:46;15.90;74.60
34927;DHT22;21132;48.308;14.274;2022-10-16T04:46:11;15.90;74.60
34927;DHT22;21132;48.308;14.274;2022-10-16T04:48:37;15.90;74.50
34927;DHT22;21132;48.308;14.274;2022-10-16T04:51:03;15.90;74.40
34927;DHT22;21132;48.308;14.274;2022-10-16T04:53:29;15.90;74.40
34927;DHT22;21132;48.308;14.274;2022-10-16T04:55:55;15.90;74.40
34927;DHT22;21132;48.308;14.274;2022-10-16T04:58:22;15.80;74.30
34927;DHT22;21132;48.308;14.274;2022-10-16T05:00:48;15.80;74.30
34927;DHT22;21132;48.308;14.274;2022-10-16T05:03:14;15.80;74.30
34927;DHT22;21132;48.308;14.274;2022-10-16T05:05:44;15.70;74.40
34927;DHT22;21132;48.308;14.274;2022-10-16T05:08:14;15.70;74.60
34927;DHT22;21132;48.308;14.274;2022-10-16T05:10:41;15.70;74.90
34927;DHT22;21132;48.308;14.274;2022-10-16T05:13:08;15.70;74.80
34927;DHT22;21132;48.308;14.274;2022-10-16T05:15:34;15.60;74.90
34927;DHT22;21132;48.308;14.274;2022-10-16T05:17:59;15.60;75.20
34927;DHT22;21132;48.308;14.274;2022-10-16T05:20:26;15.70;75.30
34927;DHT22;21132;48.308;14.274;2022-10-16T05:22:51;15.70;75.50
34927;DHT22;21132;48.308;14.274;2022-10-16T05:25:17;15.70;75.60
34927;DHT22;21132;48.308;14.274;2022-10-16T05:27:46;15.70;75.70
34927;DHT22;21132;48.308;14.274;2022-10-16T05:30:12;15.80;75.70
34927;DHT22;21132;48.308;14.274;2022-10-16T05:32:38;15.80;75.60
34927;DHT22;21132;48.308;14.274;2022-10-16T05:35:04;15.80;75.70
34927;DHT22;21132;48.308;14.274;2022-10-16T05:37:30;15.90;75.70
34927;DHT22;21132;48.308;14.274;2022-10-16T05:39:56;15.90;75.70
34927;DHT22;21132;48.308;14.274;2022-10-16T05:42:22;15.90;75.70
34927;DHT22;21132;48.308;14.274;2022-10-16T05:44:47;16.00;75.70
34927;DHT22;21132;48.308;14.274;2022-10-16T05:47:13;16.00;75.60
34927;DHT22;21132;48.308;14.274;2022-10-16T05:49:40;16.00;75.50
34927;DHT22;21132;48.308;14.274;2022-10-16T05:52:05;16.00;75.50
34927;DHT22;21132;48.308;14.274;2022-10-16T05:54:31;16.00;75.40
34927;DHT22;21132;48.308;14.274;2022-10-16T05:56:57;16.10;75.40
34927;DHT22;21132;48.308;14.274;2022-10-16T05:59:23;16.10;75.20
34927;DHT22;21132;48.308;14.274;2022-10-16T06:01:49;16.10;75.10
34927;DHT22;21132;48.308;14.274;2022-10-16T06:04:14;16.10;75.10
34927;DHT22;21132;48.308;14.274;2022-10-16T06:06:40;16.10;75.20
34927;DHT22;21132;48.308;14.274;2022-10-16T06:09:06;16.10;75.20
34927;DHT22;21132;48.308;14.274;2022-10-16T06:11:32;16.10;75.40
34927;DHT22;21132;48.308;14.274;2022-10-16T06:14:00;16.10;75.60
34927;DHT22;21132;48.308;14.274;2022-10-16T06:16:28;16.10;75.70
34927;DHT22;21132;48.308;14.274;2022-10-16T06:18:55;16.20;75.90
34927;DHT22;21132;48.308;14.274;2022-10-16T06:21:24;16.20;76.10
34927;DHT22;21132;48.308;14.274;2022-10-16T06:23:50;16.20;76.20
34927;DHT22;21132;48.308;14.274;2022-10-16T06:26:18;16.30;76.20
34927;DHT22;21132;48.308;14.274;2022-10-16T06:28:44;16.40;76.30
34927;DHT22;21132;48.308;14.274;2022-10-16T06:31:11;16.40;76.10
34927;DHT22;21132;48.308;14.274;2022-10-16T06:33:38;16.40;76.00
34927;DHT22;21132;48.308;14.274;2022-10-16T06:36:10;16.50;76.00
34927;DHT22;21132;48.308;14.274;2022-10-16T06:38:36;16.50;76.00
34927;DHT22;21132;48.308;14.274;2022-10-16T06:41:03;16.50;76.00
34927;DHT22;21132;48.308;14.274;2022-10-16T06:43:32;16.60;75.90
34927;DHT22;21132;48.308;14.274;2022-10-16T06:46:00;16.60;75.70
34927;DHT22;21132;48.308;14.274;2022-10-16T06:48:27;16.70;75.80
34927;DHT22;21132;48.308;14.274;2022-10-16T06:53:23;16.80;75.70
34927;DHT22;21132;48.308;14.274;2022-10-16T06:55:49;16.80;75.60
34927;DHT22;21132;48.308;14.274;2022-10-16T06:58:15;16.80;75.40
34927;DHT22;21132;48.308;14.274;2022-10-16T07:00:41;16.90;75.20
34927;DHT22;21132;48.308;14.274;2022-10-16T07:03:06;16.90;75.10
34927;DHT22;21132;48.308;14.274;2022-10-16T07:05:37;16.90;75.10
34927;DHT22;21132;48.308;14.274;2022-10-16T07:08:03;17.00;75.10
34927;DHT22;21132;48.308;14.274;2022-10-16T07:10:31;17.00;75.20
34927;DHT22;21132;48.308;14.274;2022-10-16T07:12:57;17.00;75.40
34927;DHT22;21132;48.308;14.274;2022-10-16T07:15:23;17.00;75.40
34927;DHT22;21132;48.308;14.274;2022-10-16T07:17:50;17.10;75.60
34927;DHT22;21132;48.308;14.274;2022-10-16T07:20:16;17.20;75.70
34927;DHT22;21132;48.308;14.274;2022-10-16T07:22:41;17.30;75.80
34927;DHT22;21132;48.308;14.274;2022-10-16T07:25:07;17.30;75.90
34927;DHT22;21132;48.308;14.274;2022-10-16T07:27:33;17.40;75.50
34927;DHT22;21132;48.308;14.274;2022-10-16T07:30:00;17.40;75.30
34927;DHT22;21132;48.308;14.274;2022-10-16T07:32:25;17.50;75.30
34927;DHT22;21132;48.308;14.274;2022-10-16T07:34:52;17.60;75.10
34927;DHT22;21132;48.308;14.274;2022-10-16T07:37:18;17.60;75.20
34927;DHT22;21132;48.308;14.274;2022-10-16T07:39:43;17.70;75.50
34927;DHT22;21132;48.308;14.274;2022-10-16T07:42:09;17.80;75.60
34927;DHT22;21132;48.308;14.274;2022-10-16T07:44:35;18.00;75.80
34927;DHT22;21132;48.308;14.274;2022-10-16T07:47:01;18.10;75.90
34927;DHT22;21132;48.308;14.274;2022-10-16T07:49:27;18.30;75.90
34927;DHT22;21132;48.308;14.274;2022-10-16T07:51:53;18.40;75.40
34927;DHT22;21132;48.308;14.274;2022-10-16T07:54:19;18.50;74.80
34927;DHT22;21132;48.308;14.274;2022-10-16T07:56:44;18.60;74.30
34927;DHT22;21132;48.308;14.274;2022-10-16T07:59:11;18.60;73.60
34927;DHT22;21132;48.308;14.274;2022-10-16T08:01:36;18.60;73.20
34927;DHT22;21132;48.308;14.274;2022-10-16T08:04:02;18.60;73.10
34927;DHT22;21132;48.308;14.274;2022-10-16T08:06:28;18.60;73.20
34927;DHT22;21132;48.308;14.274;2022-10-16T08:08:55;18.60;73.50
34927;DHT22;21132;48.308;14.274;2022-10-16T08:11:21;18.60;73.40
34927;DHT22;21132;48.308;14.274;2022-10-16T08:13:47;18.60;73.10
34927;DHT22;21132;48.308;14.274;2022-10-16T08:16:12;18.70;72.80
34927;DHT22;21132;48.308;14.274;2022-10-16T08:18:39;18.70;72.70
34927;DHT22;21132;48.308;14.274;2022-10-16T08:21:08;18.70;73.10
34927;DHT22;21132;48.308;14.274;2022-10-16T08:23:37;18.80;73.20
34927;DHT22;21132;48.308;14.274;2022-10-16T08:26:05;18.80;73.40
34927;DHT22;21132;48.308;14.274;2022-10-16T08:28:31;18.90;73.80
34927;DHT22;21132;48.308;14.274;2022-10-16T08:31:08;19.00;74.30
34927;DHT22;21132;48.308;14.274;2022-10-16T08:33:34;19.20;74.90
34927;DHT22;21132;48.308;14.274;2022-10-16T08:36:02;19.40;74.90
34927;DHT22;21132;48.308;14.274;2022-10-16T08:38:27;19.50;75.10
34927;DHT22;21132;48.308;14.274;2022-10-16T08:41:10;19.80;74.90
34927;DHT22;21132;48.308;14.274;2022-10-16T08:46:36;20.20;73.70
34927;DHT22;21132;48.308;14.274;2022-10-16T08:49:11;20.40;73.60
34927;DHT22;21132;48.308;14.274;2022-10-16T08:51:38;20.60;73.00
34927;DHT22;21132;48.308;14.274;2022-10-16T08:56:40;20.90;72.30
34927;DHT22;21132;48.308;14.274;2022-10-16T08:59:10;21.00;71.50
34927;DHT22;21132;48.308;14.274;2022-10-16T09:01:43;21.10;70.50
34927;DHT22;21132;48.308;14.274;2022-10-16T09:07:20;21.30;69.90
34927;DHT22;21132;48.308;14.274;2022-10-16T09:25:54;22.00;66.90
34927;DHT22;21132;48.308;14.274;2022-10-16T09:28:20;22.00;66.60
34927;DHT22;21132;48.308;14.274;2022-10-16T09:30:47;22.10;65.60
34927;DHT22;21132;48.308;14.274;2022-10-16T09:33:18;22.10;65.30
34927;DHT22;21132;48.308;14.274;2022-10-16T09:35:50;22.20;65.20
34927;DHT22;21132;48.308;14.274;2022-10-16T09:40:48;22.40;64.70
34927;DHT22;21132;48.308;14.274;2022-10-16T09:48:52;22.70;64.20
34927;DHT22;21132;48.308;14.274;2022-10-16T09:53:55;22.80;63.20
34927;DHT22;21132;48.308;14.274;2022-10-16T09:56:24;22.80;62.80
34927;DHT22;21132;48.308;14.274;2022-10-16T09:58:57;22.80;62.50
34927;DHT22;21132;48.308;14.274;2022-10-16T10:01:30;22.90;62.40
34927;DHT22;21132;48.308;14.274;2022-10-16T10:03:58;22.90;62.40
34927;DHT22;21132;48.308;14.274;2022-10-16T10:06:33;23.00;62.30
34927;DHT22;21132;48.308;14.274;2022-10-16T10:09:06;23.10;62.50
34927;DHT22;21132;48.308;14.274;2022-10-16T10:11:57;23.30;62.10
34927;DHT22;21132;48.308;14.274;2022-10-16T10:14:34;23.40;62.10
34927;DHT22;21132;48.308;14.274;2022-10-16T10:17:13;23.50;61.40
34927;DHT22;21132;48.308;14.274;2022-10-16T10:19:46;23.70;61.40
34927;DHT22;21132;48.308;14.274;2022-10-16T10:25:12;23.90;60.80
34927;DHT22;21132;48.308;14.274;2022-10-16T10:28:05;24.00;60.40
34927;DHT22;21132;48.308;14.274;2022-10-16T10:30:49;24.10;59.70
34927;DHT22;21132;48.308;14.274;2022-10-16T10:36:04;24.10;59.30
34927;DHT22;21132;48.308;14.274;2022-10-16T10:44:55;23.80;59.20
34927;DHT22;21132;48.308;14.274;2022-10-16T10:50:28;23.70;59.00
34927;DHT22;21132;48.308;14.274;2022-10-16T10:55:57;23.50;59.30
34927;DHT22;21132;48.308;14.274;2022-10-16T11:01:23;23.40;60.30
34927;DHT22;21132;48.308;14.274;2022-10-16T11:07:18;23.30;60.20
34927;DHT22;21132;48.308;14.274;2022-10-16T11:09:52;23.30;59.90
34927;DHT22;21132;48.308;14.274;2022-10-16T11:12:25;23.30;60.00
34927;DHT22;21132;48.308;14.274;2022-10-16T11:15:39;23.30;59.80
34927;DHT22;21132;48.308;14.274;2022-10-16T11:18:08;23.30;60.00
34927;DHT22;21132;48.308;14.274;2022-10-16T11:20:49;23.40;60.40
34927;DHT22;21132;48.308;14.274;2022-10-16T11:23:26;23.40;60.20
34927;DHT22;21132;48.308;14.274;2022-10-16T11:25:56;23.40;59.60
34927;DHT22;21132;48.308;14.274;2022-10-16T11:30:54;23.50;59.80
34927;DHT22;21132;48.308;14.274;2022-10-16T11:41:36;23.30;59.00
34927;DHT22;21132;48.308;14.274;2022-10-16T11:47:01;23.10;59.40
34927;DHT22;21132;48.308;14.274;2022-10-16T11:49:31;23.00;59.70
34927;DHT22;21132;48.308;14.274;2022-10-16T11:52:24;23.00;60.00
34927;DHT22;21132;48.308;14.274;2022-10-16T11:55:02;22.90;60.20
34927;DHT22;21132;48.308;14.274;2022-10-16T11:57:33;22.80;60.10
34927;DHT22;21132;48.308;14.274;2022-10-16T12:02:40;22.80;60.00
34927;DHT22;21132;48.308;14.274;2022-10-16T12:08:09;22.90;60.40
34927;DHT22;21132;48.308;14.274;2022-10-16T12:10:37;22.90;60.80
34927;DHT22;21132;48.308;14.274;2022-10-16T12:13:05;23.00;60.90
34927;DHT22;21132;48.308;14.274;2022-10-16T12:15:50;23.00;61.00
34927;DHT22;21132;48.308;14.274;2022-10-16T12:18:24;23.00;60.60
34927;DHT22;21132;48.308;14.274;2022-10-16T12:20:59;23.10;60.50
34927;DHT22;21132;48.308;14.274;2022-10-16T12:23:30;23.10;61.10
34927;DHT22;21132;48.308;14.274;2022-10-16T12:26:01;23.10;60.10
34927;DHT22;21132;48.308;14.274;2022-10-16T12:28:30;23.10;60.10
34927;DHT22;21132;48.308;14.274;2022-10-16T12:31:05;23.20;60.30
34927;DHT22;21132;48.308;14.274;2022-10-16T12:33:40;23.20;59.90
34927;DHT22;21132;48.308;14.274;2022-10-16T12:36:16;23.20;60.20
34927;DHT22;21132;48.308;14.274;2022-10-16T12:38:52;23.20;60.20
34927;DHT22;21132;48.308;14.274;2022-10-16T12:43:52;23.30;60.00
34927;DHT22;21132;48.308;14.274;2022-10-16T12:48:45;23.40;59.90
34927;DHT22;21132;48.308;14.274;2022-10-16T12:54:15;23.40;59.70
34927;DHT22;21132;48.308;14.274;2022-10-16T13:05:19;23.40;59.60
34927;DHT22;21132;48.308;14.274;2022-10-16T13:08:26;23.50;59.50
34927;DHT22;21132;48.308;14.274;2022-10-16T13:16:43;23.50;59.10
34927;DHT22;21132;48.308;14.274;2022-10-16T13:19:23;23.60;59.20
34927;DHT22;21132;48.308;14.274;2022-10-16T13:22:03;23.60;59.30
34927;DHT22;21132;48.308;14.274;2022-10-16T13:27:56;23.60;59.20
34927;DHT22;21132;48.308;14.274;2022-10-16T13:30:25;23.60;59.20
34927;DHT22;21132;48.308;14.274;2022-10-16T13:33:01;23.60;58.50
34927;DHT22;21132;48.308;14.274;2022-10-16T13:35:30;23.60;58.50
34927;DHT22;21132;48.308;14.274;2022-10-16T13:38:08;23.70;58.70
34927;DHT22;21132;48.308;14.274;2022-10-16T13:40:37;23.70;58.50
34927;DHT22;21132;48.308;14.274;2022-10-16T13:43:13;23.70;58.60
34927;DHT22;21132;48.308;14.274;2022-10-16T13:45:39;23.70;58.40
34927;DHT22;21132;48.308;14.274;2022-10-16T13:48:06;23.70;58.50
34927;DHT22;21132;48.308;14.274;2022-10-16T13:50:35;23.80;57.50
34927;DHT22;21132;48.308;14.274;2022-10-16T13:53:05;23.80;57.10
34927;DHT22;21132;48.308;14.274;2022-10-16T13:55:31;23.80;57.30
34927;DHT22;21132;48.308;14.274;2022-10-16T13:58:26;23.80;57.40
34927;DHT22;21132;48.308;14.274;2022-10-16T14:01:03;23.80;57.40
34927;DHT22;21132;48.308;14.274;2022-10-16T14:03:31;23.90;56.60
34927;DHT22;21132;48.308;14.274;2022-10-16T14:06:00;23.80;57.10
34927;DHT22;21132;48.308;14.274;2022-10-16T14:08:28;23.90;56.90
34927;DHT22;21132;48.308;14.274;2022-10-16T14:10:57;23.90;56.70
34927;DHT22;21132;48.308;14.274;2022-10-16T14:15:56;23.90;57.10
34927;DHT22;21132;48.308;14.274;2022-10-16T14:18:27;23.90;57.30
34927;DHT22;21132;48.308;14.274;2022-10-16T14:20:54;23.90;57.40
34927;DHT22;21132;48.308;14.274;2022-10-16T14:23:29;23.90;57.60
34927;DHT22;21132;48.308;14.274;2022-10-16T14:26:16;23.90;57.30
34927;DHT22;21132;48.308;14.274;2022-10-16T14:28:43;24.00;57.20
34927;DHT22;21132;48.308;14.274;2022-10-16T14:31:28;24.10;57.40
34927;DHT22;21132;48.308;14.274;2022-10-16T14:33:54;24.10;57.20
34927;DHT22;21132;48.308;14.274;2022-10-16T14:36:20;24.20;56.80
34927;DHT22;21132;48.308;14.274;2022-10-16T14:41:26;24.30;56.30
34927;DHT22;21132;48.308;14.274;2022-10-16T14:43:57;24.30;55.70
34927;DHT22;21132;48.308;14.274;2022-10-16T14:46:35;24.40;55.50
34927;DHT22;21132;48.308;14.274;2022-10-16T14:51:37;24.60;55.20
34927;DHT22;21132;48.308;14.274;2022-10-16T14:54:04;24.60;55.40
34927;DHT22;21132;48.308;14.274;2022-10-16T14:56:40;24.60;55.20
34927;DHT22;21132;48.308;14.274;2022-10-16T14:59:16;24.70;54.70
34927;DHT22;21132;48.308;14.274;2022-10-16T15:01:44;24.80;54.10
34927;DHT22;21132;48.308;14.274;2022-10-16T15:04:12;24.90;54.20
34927;DHT22;21132;48.308;14.274;2022-10-16T15:06:38;25.00;53.90
34927;DHT22;21132;48.308;14.274;2022-10-16T15:09:03;24.90;53.60
34927;DHT22;21132;48.308;14.274;2022-10-16T15:11:31;24.90;53.60
34927;DHT22;21132;48.308;14.274;2022-10-16T15:13:58;24.70;53.40
34927;DHT22;21132;48.308;14.274;2022-10-16T15:16:24;24.70;53.60
34927;DHT22;21132;48.308;14.274;2022-10-16T15:18:49;24.50;53.60
34927;DHT22;21132;48.308;14.274;2022-10-16T15:21:30;24.40;53.70
34927;DHT22;21132;48.308;14.274;2022-10-16T15:23:57;24.20;53.80
34927;DHT22;21132;48.308;14.274;2022-10-16T15:26:25;24.10;53.90
34927;DHT22;21132;48.308;14.274;2022-10-16T15:28:51;24.00;54.10
34927;DHT22;21132;48.308;14.274;2022-10-16T15:31:17;23.80;54.20
34927;DHT22;21132;48.308;14.274;2022-10-16T15:33:43;23.70;54.60
34927;DHT22;21132;48.308;14.274;2022-10-16T15:36:09;23.50;54.80
34927;DHT22;21132;48.308;14.274;2022-10-16T15:38:35;23.40;55.20
34927;DHT22;21132;48.308;14.274;2022-10-16T15:41:01;23.30;55.50
34927;DHT22;21132;48.308;14.274;2022-10-16T15:43:26;23.20;55.80
34927;DHT22;21132;48.308;14.274;2022-10-16T15:46:11;23.10;55.90
34927;DHT22;21132;48.308;14.274;2022-10-16T15:48:39;23.00;56.20
34927;DHT22;21132;48.308;14.274;2022-10-16T15:51:07;22.90;56.40
34927;DHT22;21132;48.308;14.274;2022-10-16T15:53:33;22.80;56.60
34927;DHT22;21132;48.308;14.274;2022-10-16T15:56:03;22.70;56.90
34927;DHT22;21132;48.308;14.274;2022-10-16T15:58:29;22.50;57.10
34927;DHT22;21132;48.308;14.274;2022-10-16T16:00:59;22.50;57.40
34927;DHT22;21132;48.308;14.274;2022-10-16T16:03:30;22.40;57.50
34927;DHT22;21132;48.308;14.274;2022-10-16T16:05:56;22.20;57.60
34927;DHT22;21132;48.308;14.274;2022-10-16T16:08:22;22.20;58.00
34927;DHT22;21132;48.308;14.274;2022-10-16T16:10:58;22.10;58.10
34927;DHT22;21132;48.308;14.274;2022-10-16T16:13:24;22.00;58.50
34927;DHT22;21132;48.308;14.274;2022-10-16T16:15:52;21.90;58.50
34927;DHT22;21132;48.308;14.274;2022-10-16T16:18:19;21.70;58.80
34927;DHT22;21132;48.308;14.274;2022-10-16T16:20:45;21.70;59.20
34927;DHT22;21132;48.308;14.274;2022-10-16T16:23:11;21.60;59.40
34927;DHT22;21132;48.308;14.274;2022-10-16T16:25:37;21.50;59.60
34927;DHT22;21132;48.308;14.274;2022-10-16T16:28:02;21.40;59.70
34927;DHT22;21132;48.308;14.274;2022-10-16T16:30:28;21.30;60.30
34927;DHT22;21132;48.308;14.274;2022-10-16T16:32:54;21.20;60.70
34927;DHT22;21132;48.308;14.274;2022-10-16T16:35:20;21.10;60.70
34927;DHT22;21132;48.308;14.274;2022-10-16T16:37:47;21.10;61.10
34927;DHT22;21132;48.308;14.274;2022-10-16T16:40:13;21.00;61.20
34927;DHT22;21132;48.308;14.274;2022-10-16T16:42:39;20.90;62.10
34927;DHT22;21132;48.308;14.274;2022-10-16T16:45:05;20.80;61.90
34927;DHT22;21132;48.308;14.274;2022-10-16T16:47:31;20.80;62.10
34927;DHT22;21132;48.308;14.274;2022-10-16T16:49:57;20.70;62.30
34927;DHT22;21132;48.308;14.274;2022-10-16T16:52:23;20.60;63.10
34927;DHT22;21132;48.308;14.274;2022-10-16T16:54:49;20.60;63.10
34927;DHT22;21132;48.308;14.274;2022-10-16T16:57:20;20.50;63.20
34927;DHT22;21132;48.308;14.274;2022-10-16T16:59:46;20.50;63.30
34927;DHT22;21132;48.308;14.274;2022-10-16T17:02:17;20.40;63.50
34927;DHT22;21132;48.308;14.274;2022-10-16T17:04:43;20.30;63.80
34927;DHT22;21132;48.308;14.274;2022-10-16T17:07:11;20.30;63.70
34927;DHT22;21132;48.308;14.274;2022-10-16T17:09:40;20.20;64.00
34927;DHT22;21132;48.308;14.274;2022-10-16T17:12:08;20.20;64.00
34927;DHT22;21132;48.308;14.274;2022-10-16T17:14:39;20.10;64.00
34927;DHT22;21132;48.308;14.274;2022-10-16T17:17:09;20.10;64.20
34927;DHT22;21132;48.308;14.274;2022-10-16T17:19:39;20.10;64.60
34927;DHT22;21132;48.308;14.274;2022-10-16T17:22:09;20.00;64.80
34927;DHT22;21132;48.308;14.274;2022-10-16T17:24:35;19.90;64.70
34927;DHT22;21132;48.308;14.274;2022-10-16T17:27:03;19.90;64.80
34927;DHT22;21132;48.308;14.274;2022-10-16T17:29:35;19.80;65.00
34927;DHT22;21132;48.308;14.274;2022-10-16T17:32:04;19.80;65.10
34927;DHT22;21132;48.308;14.274;2022-10-16T17:34:47;19.80;65.20
34927;DHT22;21132;48.308;14.274;2022-10-16T17:37:24;19.70;65.50
34927;DHT22;21132;48.308;14.274;2022-10-16T17:39:55;19.70;65.40
34927;DHT22;21132;48.308;14.274;2022-10-16T17:42:33;19.70;65.40
34927;DHT22;21132;48.308;14.274;2022-10-16T17:45:03;19.60;65.60